createdAt,value
2022-09-21T00:00:52.907Z,0.30
2022-09-21T00:03:19.465Z,0.30
2022-09-21T00:05:46.119Z,0.25
2022-09-21T00:08:14.149Z,0.30
2022-09-21T00:10:40.932Z,0.22
2022-09-21T00:13:08.886Z,0.30
2022-09-21T00:15:35.524Z,0.20
2022-09-21T00:18:02.999Z,0.22
2022-09-21T00:22:55.907Z,0.17
2022-09-21T00:25:22.405Z,0.35
2022-09-21T00:27:51.200Z,0.40
2022-09-21T00:30:18.549Z,0.30
2022-09-21T00:32:45.124Z,0.35
2022-09-21T00:35:11.611Z,0.30
2022-09-21T00:37:38.149Z,0.30
2022-09-21T00:40:05.137Z,0.20
2022-09-21T00:42:34.108Z,0.20
2022-09-21T00:45:01.471Z,0.20
2022-09-21T00:47:39.560Z,0.32
2022-09-21T00:50:11.516Z,0.20
2022-09-21T00:52:42.357Z,0.20
2022-09-21T00:55:18.870Z,0.28
2022-09-21T00:57:49.949Z,0.30
2022-09-21T01:00:18.653Z,0.30
2022-09-21T01:02:45.888Z,0.17
2022-09-21T01:05:12.439Z,0.75
2022-09-21T01:07:42.969Z,0.30
2022-09-21T01:10:12.862Z,0.30
2022-09-21T01:12:55.886Z,0.20
2022-09-21T01:15:51.537Z,0.30
2022-09-21T01:18:25.468Z,0.20
2022-09-21T01:21:11.289Z,0.17
2022-09-21T01:23:55.767Z,0.25
2022-09-21T01:26:41.017Z,0.10
2022-09-21T01:29:23.505Z,0.28
2022-09-21T01:32:00.420Z,0.32
2022-09-21T01:34:44.631Z,0.20
2022-09-21T01:37:16.073Z,0.30
2022-09-21T01:39:47.676Z,0.40
2022-09-21T01:42:16.344Z,0.20
2022-09-21T01:44:45.285Z,0.22
2022-09-21T01:47:14.075Z,0.20
2022-09-21T01:49:46.201Z,0.10
2022-09-21T01:52:24.973Z,0.20
2022-09-21T01:55:01.137Z,0.20
2022-09-21T01:58:01.392Z,0.20
2022-09-21T02:00:30.878Z,0.20
2022-09-21T02:03:04.815Z,0.30
2022-09-21T02:05:31.586Z,0.30
2022-09-21T02:07:59.661Z,0.20
2022-09-21T02:10:40.183Z,0.20
2022-09-21T02:13:08.756Z,0.30
2022-09-21T02:16:12.964Z,0.25
2022-09-21T02:19:02.585Z,0.30
2022-09-21T02:21:50.544Z,0.10
2022-09-21T02:24:32.772Z,0.20
2022-09-21T02:27:06.651Z,0.20
2022-09-21T02:29:51.611Z,0.20
2022-09-21T02:32:28.080Z,0.20
2022-09-21T02:35:33.331Z,0.30
2022-09-21T02:38:06.096Z,0.20
2022-09-21T02:40:40.196Z,0.30
2022-09-21T02:43:14.424Z,0.20
2022-09-21T02:45:53.522Z,0.20
2022-09-21T02:48:28.795Z,0.30
2022-09-21T02:50:59.237Z,0.10
2022-09-21T02:53:29.944Z,0.20
2022-09-21T02:55:59.407Z,0.45
2022-09-21T02:58:27.534Z,0.30
2022-09-21T03:00:56.453Z,0.30
2022-09-21T03:03:25.080Z,0.20
2022-09-21T03:05:54.044Z,0.20
2022-09-21T03:08:20.940Z,0.30
2022-09-21T03:10:47.651Z,0.28
2022-09-21T03:13:14.159Z,0.20
2022-09-21T03:15:41.197Z,0.20
2022-09-21T03:18:10.076Z,0.20
2022-09-21T03:20:38.240Z,0.20
2022-09-21T03:23:05.092Z,0.30
2022-09-21T03:25:31.815Z,0.20
2022-09-21T03:27:59.155Z,0.13
2022-09-21T03:30:26.634Z,0.20
2022-09-21T03:35:22.648Z,0.40
2022-09-21T03:37:50.283Z,0.28
2022-09-21T03:40:17.569Z,0.30
2022-09-21T03:45:12.292Z,0.20
2022-09-21T03:47:39.849Z,0.30
2022-09-21T03:50:09.968Z,0.15
2022-09-21T03:52:37.847Z,0.30
2022-09-21T03:55:06.661Z,0.20
2022-09-21T03:57:34.428Z,0.20
2022-09-21T04:00:03.763Z,0.20
2022-09-21T04:02:30.440Z,0.10
2022-09-21T04:04:56.905Z,0.40
2022-09-21T04:07:23.393Z,0.20
2022-09-21T04:09:49.856Z,0.10
2022-09-21T04:12:16.345Z,0.20
2022-09-21T04:14:42.812Z,0.20
2022-09-21T04:17:09.256Z,0.20
2022-09-21T04:19:35.744Z,0.17
2022-09-21T04:22:02.187Z,0.30
2022-09-21T04:24:28.652Z,0.30
2022-09-21T04:26:55.088Z,0.40
2022-09-21T04:29:21.540Z,0.30
2022-09-21T04:31:48.102Z,0.35
2022-09-21T04:34:14.631Z,0.52
2022-09-21T04:36:41.110Z,0.40
2022-09-21T04:39:07.752Z,0.30
2022-09-21T04:41:34.273Z,0.30
2022-09-21T04:44:01.420Z,0.57
2022-09-21T04:46:27.912Z,0.40
2022-09-21T04:48:54.379Z,0.30
2022-09-21T04:51:20.876Z,0.60
2022-09-21T04:53:47.372Z,0.68
2022-09-21T04:56:15.401Z,0.75
2022-09-21T04:58:41.931Z,0.45
2022-09-21T05:01:08.543Z,0.50
2022-09-21T05:03:35.310Z,0.50
2022-09-21T05:06:02.562Z,1.25
2022-09-21T05:08:47.669Z,0.90
2022-09-21T05:11:17.083Z,0.85
2022-09-21T05:13:43.539Z,1.20
2022-09-21T05:16:10.065Z,0.80
2022-09-21T05:18:37.092Z,0.88
2022-09-21T05:21:04.779Z,0.80
2022-09-21T05:23:31.924Z,0.90
2022-09-21T05:25:59.576Z,1.00
2022-09-21T05:28:27.051Z,0.90
2022-09-21T05:34:17.432Z,1.20
2022-09-21T05:36:58.966Z,0.90
2022-09-21T05:39:25.894Z,0.95
2022-09-21T05:41:52.700Z,0.70
2022-09-21T05:44:21.540Z,0.70
2022-09-21T05:47:36.703Z,0.88
2022-09-21T05:50:23.087Z,0.93
2022-09-21T05:52:58.951Z,0.90
2022-09-21T05:55:53.147Z,0.65
2022-09-21T05:58:52.919Z,1.00
2022-09-21T06:01:34.587Z,0.90
2022-09-21T06:04:02.483Z,1.00
2022-09-21T06:06:28.952Z,0.80
2022-09-21T06:08:55.483Z,0.80
2022-09-21T06:11:22.022Z,0.82
2022-09-21T06:13:48.499Z,0.88
2022-09-21T06:16:14.995Z,0.80
2022-09-21T06:18:42.397Z,1.05
2022-09-21T06:23:36.090Z,1.00
2022-09-21T06:26:02.651Z,1.23
2022-09-21T06:28:29.748Z,0.80
2022-09-21T06:30:57.454Z,0.93
2022-09-21T06:33:24.492Z,0.95
2022-09-21T06:35:53.840Z,0.85
2022-09-21T06:38:20.472Z,1.10
2022-09-21T06:40:46.950Z,1.00
2022-09-21T06:43:13.537Z,1.00
2022-09-21T06:45:40.051Z,0.90
2022-09-21T06:48:06.567Z,1.13
2022-09-21T06:50:33.345Z,1.05
2022-09-21T06:53:01.040Z,1.00
2022-09-21T06:55:27.688Z,0.90
2022-09-21T06:57:54.683Z,0.85
2022-09-21T07:00:21.151Z,1.20
2022-09-21T07:02:47.750Z,0.90
2022-09-21T07:05:14.416Z,1.00
2022-09-21T07:07:40.938Z,1.20
2022-09-21T07:10:13.127Z,1.25
2022-09-21T07:12:41.374Z,1.10
2022-09-21T07:15:10.233Z,1.10
2022-09-21T07:17:38.901Z,1.20
2022-09-21T07:20:07.873Z,1.10
2022-09-21T07:22:35.072Z,2.78
2022-09-21T07:25:01.753Z,1.60
2022-09-21T07:27:29.911Z,1.42
2022-09-21T07:29:56.444Z,1.58
2022-09-21T07:32:23.185Z,1.60
2022-09-21T07:34:49.652Z,1.48
2022-09-21T07:37:16.337Z,1.60
2022-09-21T07:39:42.839Z,1.33
2022-09-21T07:42:09.340Z,1.63
2022-09-21T07:44:35.839Z,1.40
2022-09-21T07:47:03.436Z,1.30
2022-09-21T07:49:30.312Z,2.95
2022-09-21T07:52:01.403Z,1.52
2022-09-21T07:54:29.498Z,1.33
2022-09-21T07:57:14.467Z,1.23
2022-09-21T07:59:40.911Z,2.05
2022-09-21T08:02:07.754Z,1.13
2022-09-21T08:04:34.295Z,1.27
2022-09-21T08:07:00.774Z,2.03
2022-09-21T08:09:27.409Z,1.20
2022-09-21T08:11:55.762Z,1.20
2022-09-21T08:14:26.022Z,1.23
2022-09-21T08:16:53.603Z,1.27
2022-09-21T08:19:20.429Z,1.30
2022-09-21T08:21:53.516Z,1.40
2022-09-21T08:24:22.859Z,1.15
2022-09-21T08:26:52.262Z,1.23
2022-09-21T08:29:19.140Z,1.10
2022-09-21T08:31:46.883Z,1.50
2022-09-21T08:34:14.311Z,1.20
2022-09-21T08:36:41.085Z,1.00
2022-09-21T08:39:10.773Z,1.13
2022-09-21T08:41:49.070Z,1.08
2022-09-21T08:44:20.085Z,1.08
2022-09-21T08:46:52.110Z,0.95
2022-09-21T08:49:25.257Z,1.15
2022-09-21T08:52:05.054Z,0.80
2022-09-21T08:55:12.165Z,0.75
2022-09-21T08:57:40.706Z,1.20
2022-09-21T09:00:14.507Z,1.05
2022-09-21T09:02:52.638Z,0.98
2022-09-21T09:05:48.688Z,0.80
2022-09-21T09:08:39.571Z,0.80
2022-09-21T09:11:24.324Z,0.98
2022-09-21T09:14:18.260Z,1.20
2022-09-21T09:16:47.529Z,1.10
2022-09-21T09:19:19.760Z,1.08
2022-09-21T09:21:46.733Z,0.90
2022-09-21T09:24:20.033Z,0.75
2022-09-21T09:26:53.736Z,0.80
2022-09-21T09:29:42.228Z,0.82
2022-09-21T09:32:14.104Z,0.80
2022-09-21T09:34:53.778Z,1.00
2022-09-21T09:39:57.103Z,0.93
2022-09-21T09:42:35.461Z,1.10
2022-09-21T09:45:52.810Z,0.70
2022-09-21T09:48:21.860Z,0.93
2022-09-21T09:50:48.433Z,0.77
2022-09-21T09:53:18.820Z,0.82
2022-09-21T09:55:48.977Z,0.80
2022-09-21T09:58:21.543Z,0.68
2022-09-21T10:00:53.901Z,0.60
2022-09-21T10:03:22.468Z,0.70
2022-09-21T10:05:49.619Z,0.75
2022-09-21T10:08:27.861Z,0.90
2022-09-21T10:10:54.739Z,0.80
2022-09-21T10:13:31.317Z,0.60
2022-09-21T10:16:12.514Z,0.77
2022-09-21T10:18:47.497Z,0.80
2022-09-21T10:21:24.868Z,0.70
2022-09-21T10:24:01.178Z,0.60
2022-09-21T10:26:34.577Z,0.70
2022-09-21T10:29:25.236Z,0.70
2022-09-21T10:32:14.570Z,0.70
2022-09-21T10:34:44.471Z,0.70
2022-09-21T10:37:28.717Z,0.80
2022-09-21T10:39:56.916Z,0.60
2022-09-21T10:42:23.646Z,0.77
2022-09-21T10:44:52.977Z,0.73
2022-09-21T10:47:37.206Z,0.55
2022-09-21T10:50:20.558Z,0.70
2022-09-21T10:52:47.632Z,0.70
2022-09-21T10:55:19.896Z,0.73
2022-09-21T10:57:47.589Z,0.80
2022-09-21T11:00:29.539Z,0.50
2022-09-21T11:03:01.038Z,0.57
2022-09-21T11:05:34.909Z,0.70
2022-09-21T11:08:24.068Z,0.60
2022-09-21T11:11:17.747Z,0.73
2022-09-21T11:13:56.455Z,0.80
2022-09-21T11:17:27.633Z,0.73
2022-09-21T11:20:28.091Z,0.57
2022-09-21T11:23:07.991Z,0.50
2022-09-21T11:25:50.567Z,0.40
2022-09-21T11:28:24.650Z,0.60
2022-09-21T11:31:09.253Z,0.55
2022-09-21T11:34:10.453Z,0.60
2022-09-21T11:37:01.336Z,0.50
2022-09-21T11:39:48.903Z,0.55
2022-09-21T11:42:34.396Z,0.70
2022-09-21T11:45:03.032Z,0.60
2022-09-21T11:47:29.453Z,0.40
2022-09-21T11:50:31.497Z,0.80
2022-09-21T11:53:17.068Z,0.60
2022-09-21T11:56:10.433Z,0.43
2022-09-21T11:58:53.095Z,0.38
2022-09-21T12:01:45.395Z,0.50
2022-09-21T12:04:36.552Z,0.60
2022-09-21T12:07:35.671Z,0.55
2022-09-21T12:10:14.166Z,0.40
2022-09-21T12:13:03.537Z,0.52
2022-09-21T12:15:38.811Z,0.68
2022-09-21T12:18:15.047Z,0.40
2022-09-21T12:21:05.355Z,0.50
2022-09-21T12:23:42.978Z,0.40
2022-09-21T12:26:15.439Z,0.47
2022-09-21T12:28:47.775Z,0.43
2022-09-21T12:31:45.097Z,0.60
2022-09-21T12:34:18.804Z,0.50
2022-09-21T12:37:06.820Z,0.50
2022-09-21T12:39:41.574Z,0.40
2022-09-21T12:42:35.063Z,0.50
2022-09-21T12:45:27.434Z,0.30
2022-09-21T12:48:08.801Z,0.50
2022-09-21T12:50:44.502Z,0.47
2022-09-21T12:53:18.976Z,0.50
2022-09-21T12:56:12.665Z,0.65
2022-09-21T12:58:44.389Z,0.50
2022-09-21T13:01:35.820Z,0.60
2022-09-21T13:04:17.155Z,0.60
2022-09-21T13:06:58.905Z,0.60
2022-09-21T13:09:28.413Z,0.50
2022-09-21T13:12:01.509Z,0.55
2022-09-21T13:14:34.750Z,0.38
2022-09-21T13:17:03.371Z,0.38
2022-09-21T13:19:33.112Z,0.70
2022-09-21T13:22:23.689Z,0.40
2022-09-21T13:25:05.140Z,0.68
2022-09-21T13:28:07.694Z,0.40
2022-09-21T13:30:47.176Z,0.52
2022-09-21T13:33:19.806Z,0.45
2022-09-21T13:36:02.249Z,0.50
2022-09-21T13:39:03.452Z,0.60
2022-09-21T13:41:51.914Z,0.47
2022-09-21T13:44:40.983Z,0.30
2022-09-21T13:47:09.157Z,0.50
2022-09-21T13:49:51.104Z,0.52
2022-09-21T13:52:17.502Z,0.45
2022-09-21T13:54:50.475Z,0.40
2022-09-21T13:57:24.856Z,0.30
2022-09-21T14:00:12.787Z,0.50
2022-09-21T14:02:47.097Z,0.40
2022-09-21T14:05:35.477Z,0.43
2022-09-21T14:08:03.823Z,0.30
2022-09-21T14:10:33.736Z,0.38
2022-09-21T14:13:02.065Z,0.43
2022-09-21T14:15:35.832Z,0.47
2022-09-21T14:18:35.901Z,0.30
2022-09-21T14:21:11.996Z,0.30
2022-09-21T14:23:39.474Z,0.55
2022-09-21T14:29:16.935Z,0.47
2022-09-21T14:31:43.947Z,0.30
2022-09-21T14:34:23.541Z,0.50
2022-09-21T14:36:54.291Z,0.35
2022-09-21T14:39:43.396Z,0.60
2022-09-21T14:42:20.085Z,0.30
2022-09-21T14:44:51.376Z,0.50
2022-09-21T14:47:20.859Z,0.30
2022-09-21T14:50:14.386Z,0.35
2022-09-21T14:53:28.044Z,0.30
2022-09-21T14:56:03.797Z,0.28
2022-09-21T14:58:48.490Z,0.40
2022-09-21T15:01:35.911Z,0.30
2022-09-21T15:04:45.338Z,0.50
2022-09-21T15:07:53.117Z,0.20
2022-09-21T15:10:53.051Z,0.60
2022-09-21T15:13:33.334Z,0.90
2022-09-21T15:16:18.257Z,0.60
2022-09-21T15:18:46.937Z,0.47
2022-09-21T15:21:22.674Z,1.02
2022-09-21T15:23:50.562Z,1.02
2022-09-21T15:26:26.666Z,0.70
2022-09-21T15:29:12.023Z,0.68
2022-09-21T15:31:41.975Z,0.55
2022-09-21T15:34:13.409Z,0.80
2022-09-21T15:36:42.070Z,0.50
2022-09-21T15:39:21.497Z,0.57
2022-09-21T15:41:50.641Z,0.60
2022-09-21T15:44:26.397Z,0.77
2022-09-21T15:47:00.145Z,0.80
2022-09-21T15:49:29.653Z,0.70
2022-09-21T15:51:58.671Z,0.70
2022-09-21T15:54:40.634Z,1.02
2022-09-21T15:57:39.048Z,1.10
2022-09-21T16:00:31.723Z,0.98
2022-09-21T16:03:04.576Z,1.00
2022-09-21T16:05:41.789Z,0.65
2022-09-21T16:08:27.280Z,0.70
2022-09-21T16:11:12.106Z,0.75
2022-09-21T16:13:57.177Z,0.95
2022-09-21T16:16:23.705Z,0.88
2022-09-21T16:18:53.020Z,0.80
2022-09-21T16:21:34.314Z,0.95
2022-09-21T16:24:33.455Z,0.80
2022-09-21T16:27:02.502Z,0.60
2022-09-21T16:29:42.979Z,1.00
2022-09-21T16:32:18.475Z,0.75
2022-09-21T16:34:54.163Z,0.65
2022-09-21T16:37:24.168Z,0.88
2022-09-21T16:39:55.371Z,1.35
2022-09-21T16:42:23.857Z,0.73
2022-09-21T16:44:50.643Z,0.80
2022-09-21T16:47:27.569Z,0.60
2022-09-21T16:49:56.937Z,0.60
2022-09-21T16:52:24.512Z,1.13
2022-09-21T16:54:51.435Z,1.15
2022-09-21T16:57:18.426Z,0.60
2022-09-21T16:59:44.933Z,0.85
2022-09-21T17:02:14.102Z,0.90
2022-09-21T17:04:41.156Z,0.70
2022-09-21T17:07:13.502Z,1.08
2022-09-21T17:09:44.422Z,0.95
2022-09-21T17:12:13.212Z,1.13
2022-09-21T17:14:44.318Z,1.00
2022-09-21T17:17:12.996Z,1.35
2022-09-21T17:19:42.929Z,0.82
2022-09-21T17:22:17.097Z,1.02
2022-09-21T17:24:52.109Z,1.13
2022-09-21T17:27:21.665Z,0.93
2022-09-21T17:29:49.713Z,0.90
2022-09-21T17:32:20.548Z,0.68
2022-09-21T17:34:53.825Z,0.80
2022-09-21T17:37:21.806Z,0.80
2022-09-21T17:39:48.516Z,0.65
2022-09-21T17:42:21.189Z,0.77
2022-09-21T17:45:14.589Z,0.90
2022-09-21T17:47:41.592Z,0.98
2022-09-21T17:50:17.047Z,0.95
2022-09-21T17:53:03.147Z,1.30
2022-09-21T17:55:30.675Z,1.05
2022-09-21T17:58:30.891Z,1.10
2022-09-21T18:01:12.826Z,0.90
2022-09-21T18:03:41.745Z,0.98
2022-09-21T18:06:11.812Z,1.17
2022-09-21T18:08:39.421Z,0.90
2022-09-21T18:11:36.607Z,0.98
2022-09-21T18:14:17.400Z,0.90
2022-09-21T18:16:46.829Z,1.00
2022-09-21T18:19:30.971Z,0.90
2022-09-21T18:22:08.840Z,1.10
2022-09-21T18:24:35.597Z,0.65
2022-09-21T18:27:02.367Z,1.30
2022-09-21T18:29:40.797Z,0.70
2022-09-21T18:32:46.366Z,0.82
2022-09-21T18:35:26.100Z,0.80
2022-09-21T18:38:12.624Z,0.70
2022-09-21T18:41:05.264Z,1.17
2022-09-21T18:43:42.976Z,0.93
2022-09-21T18:46:16.383Z,0.90
2022-09-21T18:48:50.575Z,0.82
2022-09-21T18:51:27.589Z,0.70
2022-09-21T18:53:56.347Z,0.90
2022-09-21T18:56:24.908Z,0.82
2022-09-21T18:58:52.344Z,1.23
2022-09-21T19:01:22.056Z,0.90
2022-09-21T19:03:49.965Z,0.77
2022-09-21T19:06:37.999Z,1.00
2022-09-21T19:09:32.052Z,1.20
2022-09-21T19:12:19.793Z,0.90
2022-09-21T19:15:00.655Z,0.60
2022-09-21T19:17:39.159Z,0.63
2022-09-21T19:20:43.116Z,0.75
2022-09-21T19:25:56.751Z,0.75
2022-09-21T19:28:42.491Z,0.90
2022-09-21T19:33:50.051Z,1.00
2022-09-21T19:36:17.708Z,0.75
2022-09-21T19:38:44.317Z,0.90
2022-09-21T19:41:35.444Z,0.90
2022-09-21T19:44:20.642Z,0.95
2022-09-21T19:46:59.277Z,0.70
2022-09-21T19:49:41.381Z,0.95
2022-09-21T19:52:14.001Z,0.90
2022-09-21T19:54:59.108Z,1.13
2022-09-21T19:57:44.299Z,0.75
2022-09-21T20:00:15.769Z,0.85
2022-09-21T20:03:05.774Z,0.90
2022-09-21T20:05:40.606Z,0.65
2022-09-21T20:08:18.963Z,0.82
2022-09-21T20:11:01.848Z,0.90
2022-09-21T20:14:09.595Z,0.90
2022-09-21T20:16:53.372Z,0.52
2022-09-21T20:19:31.628Z,0.88
2022-09-21T20:22:09.401Z,0.55
2022-09-21T20:25:00.730Z,0.93
2022-09-21T20:27:39.441Z,0.85
2022-09-21T20:30:09.968Z,0.90
2022-09-21T20:32:38.844Z,0.50
2022-09-21T20:35:15.169Z,0.90
2022-09-21T20:37:42.268Z,0.60
2022-09-21T20:40:09.704Z,0.80
2022-09-21T20:45:07.540Z,0.60
2022-09-21T20:47:34.437Z,0.60
2022-09-21T20:50:01.036Z,0.77
2022-09-21T20:52:27.489Z,0.88
2022-09-21T20:54:53.923Z,0.57
2022-09-21T20:57:20.498Z,0.88
2022-09-21T20:59:47.345Z,0.55
2022-09-21T21:02:15.334Z,0.70
2022-09-21T21:04:41.860Z,0.70
2022-09-21T21:07:08.379Z,0.82
2022-09-21T21:09:34.855Z,0.80
2022-09-21T21:12:01.916Z,0.88
2022-09-21T21:14:29.911Z,0.60
2022-09-21T21:16:56.552Z,1.00
2022-09-21T21:19:23.384Z,0.70
2022-09-21T21:21:49.857Z,0.60
2022-09-21T21:24:34.925Z,0.80
2022-09-21T21:27:03.135Z,0.80
2022-09-21T21:29:30.975Z,0.68
2022-09-21T21:31:58.972Z,0.60
2022-09-21T21:34:26.007Z,0.55
2022-09-21T21:36:53.159Z,0.50
2022-09-21T21:39:19.610Z,0.65
2022-09-21T21:41:46.566Z,0.77
2022-09-21T21:44:13.071Z,1.00
2022-09-21T21:46:39.700Z,0.80
2022-09-21T21:49:06.566Z,0.75
2022-09-21T21:51:33.496Z,0.90
2022-09-21T21:54:00.107Z,0.50
2022-09-21T21:56:26.662Z,0.80
2022-09-21T21:58:54.340Z,0.70
2022-09-21T22:01:27.254Z,0.60
2022-09-21T22:04:02.232Z,0.70
2022-09-21T22:06:30.449Z,0.80
2022-09-21T22:08:57.527Z,0.60
2022-09-21T22:11:25.363Z,0.70
2022-09-21T22:13:54.068Z,0.70
2022-09-21T22:16:23.609Z,1.00
2022-09-21T22:18:51.305Z,0.82
2022-09-21T22:21:23.368Z,0.80
2022-09-21T22:23:53.700Z,0.75
2022-09-21T22:26:21.119Z,1.02
2022-09-21T22:31:21.116Z,0.77
2022-09-21T22:33:48.566Z,0.70
2022-09-21T22:36:20.345Z,0.63
2022-09-21T22:38:47.347Z,0.55
2022-09-21T22:41:19.840Z,0.55
2022-09-21T22:43:48.180Z,0.70
2022-09-21T22:46:16.641Z,0.60
2022-09-21T22:48:44.056Z,0.80
2022-09-21T22:51:10.973Z,0.80
2022-09-21T22:53:37.447Z,0.50
2022-09-21T22:56:11.702Z,0.80
2022-09-21T22:58:41.060Z,0.40
2022-09-21T23:01:08.908Z,0.55
2022-09-21T23:03:35.446Z,0.80
2022-09-21T23:06:01.958Z,0.70
2022-09-21T23:08:29.207Z,0.75
2022-09-21T23:10:56.948Z,0.57
2022-09-21T23:13:23.696Z,0.50
2022-09-21T23:15:50.886Z,0.70
2022-09-21T23:18:17.396Z,0.40
2022-09-21T23:20:43.855Z,0.80
2022-09-21T23:23:10.431Z,0.63
2022-09-21T23:25:37.403Z,0.50
2022-09-21T23:28:03.866Z,0.75
2022-09-21T23:30:30.356Z,0.57
2022-09-21T23:32:56.816Z,0.70
2022-09-21T23:35:23.300Z,0.60
2022-09-21T23:37:50.012Z,0.60
2022-09-21T23:40:16.838Z,0.90
2022-09-21T23:42:43.324Z,0.95
2022-09-21T23:45:09.984Z,0.50
2022-09-21T23:47:36.447Z,0.65
2022-09-21T23:50:03.007Z,0.75
2022-09-21T23:52:31.154Z,0.80
2022-09-21T23:54:57.669Z,0.57
2022-09-21T23:57:24.181Z,0.70
2022-09-21T23:59:52.644Z,0.68
